Time;durP1;ratioP1;P1;durP2;ratioP2;P2;SDS_P1;SDS_P2;PMS_P1;PMS_P2;Temp;Humidity;BMP_temperature;BMP_pressure;BME280_temperature;BME280_humidity;BME280_pressure;Samples;Min_cycle;Max_cycle;Signal;HPM_P1;HPM_P2
2021/12/29 00:00:40;;;;;;;5.90;2.07;;;;;;;;;;5044667;28;20109;-61
2021/12/29 00:03:07;;;;;;;3.53;1.53;;;;;;;;;;5029535;28;20101;-61
2021/12/29 00:05:34;;;;;;;12.47;1.67;;;;;;;;;;5033974;28;20025;-61
2021/12/29 00:08:00;;;;;;;3.80;1.60;;;;;;;;;;5034990;28;20029;-61
2021/12/29 00:10:29;;;;;;;2.37;0.90;;;;;;;;;;5034060;28;20029;-64
2021/12/29 00:12:56;;;;;;;3.17;1.10;;;;;;;;;;5033496;28;20053;-63
2021/12/29 00:15:27;;;;;;;4.83;1.47;;;;;;;;;;5031611;28;20037;-63
2021/12/29 00:17:55;;;;;;;4.63;1.20;;;;;;;;;;5029757;28;20025;-62
2021/12/29 00:20:28;;;;;;;5.00;1.13;;;;;;;;;;5029427;28;20026;-62
2021/12/29 00:22:55;;;;;;;3.13;1.10;;;;;;;;;;5029395;28;20456;-63
2021/12/29 00:25:22;;;;;;;2.43;1.17;;;;;;;;;;5032452;28;20048;-62
2021/12/29 00:27:49;;;;;;;4.60;1.20;;;;;;;;;;5041742;28;20155;-62
2021/12/29 00:30:15;;;;;;;4.07;1.00;;;;;;;;;;5034238;28;20026;-62
2021/12/29 00:32:42;;;;;;;3.47;1.20;;;;;;;;;;5033299;28;20360;-63
2021/12/29 00:35:12;;;;;;;3.23;1.23;;;;;;;;;;5034010;28;20033;-63
2021/12/29 00:37:39;;;;;;;3.93;1.10;;;;;;;;;;5032741;28;20108;-62
2021/12/29 00:40:06;;;;;;;10.57;1.27;;;;;;;;;;5030337;28;20029;-62
2021/12/29 00:42:32;;;;;;;1.93;1.00;;;;;;;;;;5028545;28;20558;-63
2021/12/29 00:44:59;;;;;;;3.47;1.10;;;;;;;;;;5045145;28;20029;-65
2021/12/29 00:47:30;;;;;;;1.47;0.87;;;;;;;;;;5028377;28;20029;-65
2021/12/29 00:49:59;;;;;;;1.57;1.00;;;;;;;;;;5031644;28;20350;-65
2021/12/29 00:52:25;;;;;;;2.87;1.10;;;;;;;;;;5033326;28;20488;-63
2021/12/29 00:54:52;;;;;;;7.87;1.77;;;;;;;;;;5033707;28;20051;-64
2021/12/29 00:57:19;;;;;;;3.67;1.00;;;;;;;;;;5034806;28;20021;-65
2021/12/29 00:59:46;;;;;;;2.07;1.00;;;;;;;;;;5033194;28;20489;-64
2021/12/29 01:02:12;;;;;;;4.70;1.10;;;;;;;;;;5030375;28;20036;-65
2021/12/29 01:04:39;;;;;;;3.00;1.20;;;;;;;;;;5028679;28;20026;-63
2021/12/29 01:07:06;;;;;;;3.50;1.00;;;;;;;;;;5028300;28;20076;-63
2021/12/29 01:09:33;;;;;;;2.90;1.17;;;;;;;;;;5028243;28;20038;-63
2021/12/29 01:12:00;;;;;;;6.63;1.03;;;;;;;;;;5030228;28;20116;-64
2021/12/29 01:14:30;;;;;;;3.87;1.20;;;;;;;;;;5033377;28;20072;-64
2021/12/29 01:16:57;;;;;;;2.93;1.00;;;;;;;;;;5032651;28;20039;-63
2021/12/29 01:19:25;;;;;;;4.03;1.67;;;;;;;;;;5033180;28;20548;-63
2021/12/29 01:21:53;;;;;;;0.83;0.80;;;;;;;;;;5032914;28;20353;-65
2021/12/29 01:24:26;;;;;;;4.00;1.77;;;;;;;;;;5030607;28;20072;-63
2021/12/29 01:26:55;;;;;;;4.93;1.40;;;;;;;;;;5027806;28;20029;-64
2021/12/29 01:29:32;;;;;;;4.40;1.80;;;;;;;;;;5027744;28;20083;-65
2021/12/29 01:32:26;;;;;;;2.30;1.33;;;;;;;;;;5027684;28;20528;-64
2021/12/29 01:35:03;;;;;;;2.97;1.50;;;;;;;;;;5030545;28;20029;-63
2021/12/29 01:37:44;;;;;;;;;;;;;;;;;;;;;
2021/12/29 01:40:22;;;;;;;2.47;1.20;;;;;;;;;;5032529;28;20036;-64
2021/12/29 01:42:49;;;;;;;6.93;1.40;;;;;;;;;;5032458;28;20021;-64
2021/12/29 01:45:39;;;;;;;2.03;1.07;;;;;;;;;;5032329;28;20021;-63
2021/12/29 01:48:19;;;;;;;3.03;1.03;;;;;;;;;;5018349;28;20041;-63
2021/12/29 01:50:59;;;;;;;5.00;1.50;;;;;;;;;;5027610;28;20048;-63
2021/12/29 01:53:45;;;;;;;2.37;1.33;;;;;;;;;;5027019;28;20083;-63
2021/12/29 01:56:39;;;;;;;2.83;1.23;;;;;;;;;;5028223;28;20029;-64
2021/12/29 01:59:24;;;;;;;2.97;1.30;;;;;;;;;;5031692;28;20519;-64
2021/12/29 02:01:58;;;;;;;3.80;1.70;;;;;;;;;;5032129;28;20037;-63
2021/12/29 02:04:35;;;;;;;4.00;1.57;;;;;;;;;;5029391;28;20029;-64
2021/12/29 02:07:07;;;;;;;3.40;1.47;;;;;;;;;;5031984;28;20539;-63
2021/12/29 02:09:54;;;;;;;2.90;1.20;;;;;;;;;;5028904;28;20033;-63
2021/12/29 02:12:40;;;;;;;4.73;1.50;;;;;;;;;;5026992;28;20488;-64
2021/12/29 02:15:14;;;;;;;4.67;1.80;;;;;;;;;;5026714;28;20026;-65
2021/12/29 02:17:45;;;;;;;2.92;1.48;;;;;;;;;;5026697;28;20582;-64
2021/12/29 02:20:26;;;;;;;4.50;1.20;;;;;;;;;;5030839;28;20428;-63
2021/12/29 02:23:55;;;;;;;5.17;1.50;;;;;;;;;;5031858;28;20018;-63
2021/12/29 02:26:08;;;;;;;5.73;2.67;;;;;;;;;;5033929;28;20060;-62
2021/12/29 02:28:46;;;;;;;;;;;;;;;;;;;;;
2021/12/29 02:31:16;;;;;;;9.40;2.93;;;;;;;;;;5029664;28;20028;-63
2021/12/29 02:34:04;;;;;;;5.33;2.57;;;;;;;;;;5012174;28;20033;-63
2021/12/29 02:36:43;;;;;;;7.57;2.37;;;;;;;;;;5026627;28;20124;-63
2021/12/29 02:51:55;;;;;;;13.03;2.67;;;;;;;;;;5302759;22;20056;-68
2021/12/29 02:54:22;;;;;;;9.53;2.20;;;;;;;;;;5027582;28;20510;-71
2021/12/29 02:56:52;;;;;;;9.03;2.87;;;;;;;;;;5031437;28;20368;-71
2021/12/29 02:59:19;;;;;;;6.53;2.40;;;;;;;;;;5031609;28;20032;-72
2021/12/29 03:01:45;;;;;;;6.20;2.47;;;;;;;;;;5031621;28;20018;-71
2021/12/29 03:04:13;;;;;;;9.57;2.33;;;;;;;;;;5028126;28;20208;-72
2021/12/29 03:06:40;;;;;;;12.33;2.37;;;;;;;;;;5026539;28;20088;-72
2021/12/29 03:09:08;;;;;;;6.40;1.67;;;;;;;;;;5025693;28;20021;-72
2021/12/29 03:11:35;;;;;;;6.33;2.43;;;;;;;;;;5026539;28;20530;-71
2021/12/29 03:14:02;;;;;;;6.60;2.27;;;;;;;;;;5028942;28;20029;-72
2021/12/29 03:16:29;;;;;;;8.60;1.73;;;;;;;;;;5031594;28;20038;-72
2021/12/29 03:18:56;;;;;;;7.27;2.47;;;;;;;;;;5031698;28;20112;-70
2021/12/29 03:21:22;;;;;;;9.93;2.50;;;;;;;;;;5031561;28;20025;-71
2021/12/29 03:23:49;;;;;;;6.30;2.37;;;;;;;;;;5031081;28;20431;-72
2021/12/29 03:26:17;;;;;;;8.73;2.13;;;;;;;;;;5028244;28;20089;-72
2021/12/29 03:28:44;;;;;;;4.23;2.17;;;;;;;;;;5026476;28;20051;-71
2021/12/29 03:31:14;;;;;;;5.50;2.40;;;;;;;;;;5026994;28;20026;-72
2021/12/29 03:33:42;;;;;;;8.73;2.27;;;;;;;;;;5030104;28;20365;-71
2021/12/29 03:36:09;;;;;;;6.83;1.70;;;;;;;;;;5032175;28;20048;-72
2021/12/29 03:38:37;;;;;;;5.77;1.80;;;;;;;;;;5035035;28;20470;-72
2021/12/29 03:41:05;;;;;;;5.73;1.60;;;;;;;;;;5035092;28;20029;-72
2021/12/29 03:43:32;;;;;;;6.07;1.57;;;;;;;;;;5034795;28;20036;-71
2021/12/29 03:46:00;;;;;;;5.73;1.77;;;;;;;;;;5034655;28;20033;-72
2021/12/29 03:48:28;;;;;;;10.43;2.40;;;;;;;;;;5031983;28;20056;-71
2021/12/29 03:50:55;;;;;;;12.60;2.23;;;;;;;;;;5029698;28;20022;-71
2021/12/29 03:53:22;;;;;;;4.57;1.90;;;;;;;;;;5029623;28;20044;-71
2021/12/29 03:55:50;;;;;;;4.10;2.07;;;;;;;;;;5028779;28;20037;-71
2021/12/29 03:58:18;;;;;;;12.93;2.23;;;;;;;;;;5030693;28;20124;-71
2021/12/29 04:00:45;;;;;;;8.43;1.90;;;;;;;;;;5034534;28;20026;-71
2021/12/29 04:03:12;;;;;;;3.07;1.50;;;;;;;;;;5034452;28;20021;-71
2021/12/29 04:05:39;;;;;;;7.67;2.10;;;;;;;;;;5034356;28;20025;-71
2021/12/29 04:08:06;;;;;;;11.13;1.90;;;;;;;;;;5034282;28;20033;-71
2021/12/29 04:10:33;;;;;;;7.53;1.90;;;;;;;;;;5031319;28;20032;-71
2021/12/29 04:13:00;;;;;;;8.47;1.77;;;;;;;;;;5029474;28;20033;-71
2021/12/29 04:15:29;;;;;;;10.90;2.80;;;;;;;;;;5029140;28;20072;-71
2021/12/29 04:17:58;;;;;;;8.10;2.00;;;;;;;;;;5029071;28;20087;-71
2021/12/29 04:23:14;;;;;;;6.60;1.90;;;;;;;;;;5034469;28;20091;-71
2021/12/29 04:25:44;;;;;;;17.83;3.87;;;;;;;;;;5034027;28;20022;-71
2021/12/29 04:28:15;;;;;;;6.60;2.00;;;;;;;;;;5033884;28;20021;-71
2021/12/29 04:30:42;;;;;;;4.27;1.80;;;;;;;;;;5033994;28;20570;-71
2021/12/29 04:33:10;;;;;;;7.90;2.13;;;;;;;;;;5030483;28;20075;-72
2021/12/29 04:35:37;;;;;;;8.03;2.10;;;;;;;;;;5028585;28;20365;-71
2021/12/29 04:38:03;;;;;;;8.57;2.63;;;;;;;;;;5028926;28;20021;-71
2021/12/29 04:40:31;;;;;;;4.63;1.97;;;;;;;;;;5028714;28;20030;-71
2021/12/29 04:42:57;;;;;;;10.73;2.10;;;;;;;;;;5030719;28;20053;-71
2021/12/29 04:45:24;;;;;;;7.63;1.67;;;;;;;;;;5033832;28;20040;-71
2021/12/29 04:47:51;;;;;;;2.67;1.67;;;;;;;;;;5033759;28;20418;-71
2021/12/29 04:50:28;;;;;;;6.10;1.57;;;;;;;;;;5032680;28;20037;-71
2021/12/29 04:52:56;;;;;;;7.90;1.30;;;;;;;;;;5034091;28;20442;-71
2021/12/29 04:55:23;;;;;;;5.87;1.40;;;;;;;;;;5029999;28;20422;-68
2021/12/29 04:57:50;;;;;;;2.90;1.40;;;;;;;;;;5028142;28;20072;-68
2021/12/29 05:00:21;;;;;;;3.13;1.50;;;;;;;;;;5028576;28;20422;-69
2021/12/29 05:02:48;;;;;;;4.33;2.13;;;;;;;;;;5027580;28;20025;-67
2021/12/29 05:05:22;;;;;;;3.67;1.30;;;;;;;;;;5030445;28;20033;-67
2021/12/29 05:10:34;;;;;;;3.17;1.30;;;;;;;;;;5033659;28;20391;-70
2021/12/29 05:13:01;;;;;;;7.37;1.70;;;;;;;;;;5033162;28;20472;-70
2021/12/29 05:15:28;;;;;;;2.77;1.40;;;;;;;;;;5032440;28;20029;-70
2021/12/29 05:17:56;;;;;;;2.10;1.00;;;;;;;;;;5028744;28;20022;-69
2021/12/29 05:20:23;;;;;;;3.00;1.30;;;;;;;;;;5028095;28;20022;-69
2021/12/29 05:22:50;;;;;;;3.40;1.20;;;;;;;;;;5027982;28;20059;-69
2021/12/29 05:25:17;;;;;;;2.47;1.17;;;;;;;;;;5027881;28;20384;-67
2021/12/29 05:27:43;;;;;;;2.43;1.33;;;;;;;;;;5030906;28;20085;-66
2021/12/29 05:30:11;;;;;;;4.57;1.67;;;;;;;;;;5032490;28;20025;-68
2021/12/29 05:32:37;;;;;;;2.90;1.33;;;;;;;;;;5032131;28;20085;-68
2021/12/29 05:35:05;;;;;;;3.10;1.00;;;;;;;;;;5032320;28;20088;-68
2021/12/29 05:37:31;;;;;;;2.13;1.00;;;;;;;;;;5032887;28;20484;-68
2021/12/29 05:39:58;;;;;;;2.93;0.97;;;;;;;;;;5030125;28;20160;-68
2021/12/29 05:42:25;;;;;;;2.77;1.43;;;;;;;;;;5027621;28;20096;-68
2021/12/29 05:44:52;;;;;;;2.70;1.10;;;;;;;;;;5027231;28;20025;-68
2021/12/29 05:47:19;;;;;;;3.53;1.10;;;;;;;;;;5027340;28;20061;-67
2021/12/29 05:49:46;;;;;;;5.83;1.40;;;;;;;;;;5029319;28;20018;-68
2021/12/29 05:52:15;;;;;;;4.43;1.50;;;;;;;;;;5032470;28;20353;-67
2021/12/29 05:54:42;;;;;;;4.53;1.13;;;;;;;;;;5031964;28;20025;-67
2021/12/29 05:57:09;;;;;;;4.30;1.70;;;;;;;;;;5032260;28;20472;-67
2021/12/29 05:59:36;;;;;;;6.33;1.90;;;;;;;;;;5032682;28;20298;-67
2021/12/29 06:02:03;;;;;;;3.17;1.73;;;;;;;;;;5030168;28;20274;-69
2021/12/29 06:04:30;;;;;;;2.90;1.33;;;;;;;;;;5022044;28;20278;-67
2021/12/29 06:06:57;;;;;;;6.53;2.00;;;;;;;;;;5027172;28;20262;-67
2021/12/29 06:09:24;;;;;;;3.03;1.40;;;;;;;;;;5027141;28;20358;-67
2021/12/29 06:11:50;;;;;;;5.57;1.73;;;;;;;;;;5027517;28;20779;-67
2021/12/29 06:14:17;;;;;;;4.50;1.90;;;;;;;;;;5032376;28;20267;-67
2021/12/29 06:16:44;;;;;;;2.60;1.20;;;;;;;;;;5031492;28;20290;-67
2021/12/29 06:19:11;;;;;;;6.57;1.70;;;;;;;;;;5031802;28;20259;-67
2021/12/29 06:21:38;;;;;;;2.97;1.30;;;;;;;;;;5032106;28;20267;-67
2021/12/29 06:24:06;;;;;;;3.40;1.20;;;;;;;;;;5031816;28;20270;-67
2021/12/29 06:26:33;;;;;;;2.40;1.13;;;;;;;;;;5026616;28;20702;-67
2021/12/29 06:29:00;;;;;;;3.57;1.47;;;;;;;;;;5027382;28;20286;-67
2021/12/29 06:31:27;;;;;;;3.90;1.53;;;;;;;;;;5027252;28;20271;-67
2021/12/29 06:33:53;;;;;;;4.70;1.40;;;;;;;;;;5026476;28;20296;-67
2021/12/29 06:36:20;;;;;;;4.17;1.30;;;;;;;;;;5030621;28;20385;-67
2021/12/29 06:38:47;;;;;;;2.23;1.23;;;;;;;;;;5031751;28;20353;-67
2021/12/29 06:41:14;;;;;;;2.57;1.40;;;;;;;;;;5031928;28;20296;-67
2021/12/29 06:43:41;;;;;;;6.93;2.13;;;;;;;;;;5032095;28;20316;-67
2021/12/29 06:46:07;;;;;;;2.77;1.17;;;;;;;;;;5031386;28;20349;-68
2021/12/29 06:48:34;;;;;;;3.30;1.20;;;;;;;;;;5026463;28;20266;-68
2021/12/29 06:51:01;;;;;;;4.07;1.33;;;;;;;;;;5026745;28;20278;-67
2021/12/29 06:53:30;;;;;;;2.80;1.33;;;;;;;;;;5026194;28;20782;-67
2021/12/29 06:55:57;;;;;;;8.70;1.70;;;;;;;;;;5025834;28;21087;-67
2021/12/29 06:58:24;;;;;;;3.93;1.20;;;;;;;;;;5027957;28;20259;-67
2021/12/29 07:00:51;;;;;;;4.07;1.80;;;;;;;;;;5011969;28;20804;-67
2021/12/29 07:03:17;;;;;;;4.87;1.40;;;;;;;;;;5030364;28;20288;-67
2021/12/29 07:05:44;;;;;;;2.83;1.20;;;;;;;;;;5031834;28;20262;-67
2021/12/29 07:08:11;;;;;;;4.40;1.60;;;;;;;;;;5035508;28;20283;-67
2021/12/29 07:10:40;;;;;;;1.97;1.20;;;;;;;;;;5031800;28;20269;-66
2021/12/29 07:13:07;;;;;;;5.43;1.27;;;;;;;;;;5030169;28;20262;-67
2021/12/29 07:15:34;;;;;;;8.20;2.53;;;;;;;;;;5029636;28;20293;-67
2021/12/29 07:18:01;;;;;;;4.87;1.80;;;;;;;;;;5025704;28;20282;-68
2021/12/29 07:20:28;;;;;;;3.13;1.33;;;;;;;;;;5012191;28;20275;-67
2021/12/29 07:22:55;;;;;;;2.17;0.80;;;;;;;;;;5030992;28;20356;-68
2021/12/29 07:25:22;;;;;;;3.27;0.83;;;;;;;;;;5034993;28;20828;-67
2021/12/29 07:27:49;;;;;;;5.07;1.17;;;;;;;;;;5033349;28;20269;-67
2021/12/29 07:30:16;;;;;;;4.10;1.20;;;;;;;;;;5034543;28;20262;-67
2021/12/29 07:32:43;;;;;;;2.30;1.10;;;;;;;;;;5032358;28;20313;-67
2021/12/29 07:35:10;;;;;;;1.70;1.00;;;;;;;;;;5029543;28;20403;-68
2021/12/29 07:37:37;;;;;;;3.83;0.93;;;;;;;;;;5023239;28;20321;-68
2021/12/29 07:40:07;;;;;;;2.90;0.90;;;;;;;;;;5008733;28;20319;-67
2021/12/29 07:42:34;;;;;;;5.40;1.00;;;;;;;;;;5023001;28;20290;-66
2021/12/29 07:45:03;;;;;;;3.27;1.00;;;;;;;;;;5034094;28;20250;-66
2021/12/29 07:47:30;;;;;;;2.87;1.10;;;;;;;;;;5033826;28;20321;-66
2021/12/29 07:49:57;;;;;;;4.77;1.27;;;;;;;;;;5035129;28;20251;-66
2021/12/29 07:52:24;;;;;;;3.77;1.40;;;;;;;;;;5034609;28;20752;-66
2021/12/29 07:54:51;;;;;;;3.10;1.53;;;;;;;;;;5019167;28;20251;-67
2021/12/29 07:57:17;;;;;;;5.40;1.40;;;;;;;;;;5008269;28;20283;-68
2021/12/29 07:59:44;;;;;;;2.30;1.20;;;;;;;;;;5009165;28;20840;-66
2021/12/29 08:02:17;;;;;;;5.97;1.30;;;;;;;;;;5018406;28;20656;-66
2021/12/29 08:04:44;;;;;;;2.93;1.60;;;;;;;;;;5028855;28;20270;-67
2021/12/29 08:07:11;;;;;;;4.87;1.10;;;;;;;;;;5034170;28;20345;-66
2021/12/29 08:09:38;;;;;;;2.97;1.00;;;;;;;;;;5034460;28;20617;-66
2021/12/29 08:12:05;;;;;;;1.77;1.00;;;;;;;;;;5034635;28;20251;-66
2021/12/29 08:14:32;;;;;;;1.97;1.00;;;;;;;;;;5033543;28;20337;-66
2021/12/29 08:17:01;;;;;;;5.83;1.80;;;;;;;;;;5033696;28;20290;-66
2021/12/29 08:19:28;;;;;;;2.27;1.07;;;;;;;;;;5018564;28;20295;-66
2021/12/29 08:21:55;;;;;;;3.73;1.03;;;;;;;;;;5009511;28;20375;-67
2021/12/29 08:24:21;;;;;;;4.13;1.70;;;;;;;;;;5009497;28;20333;-66
2021/12/29 08:26:48;;;;;;;2.43;0.97;;;;;;;;;;5009553;28;20787;-66
2021/12/29 08:29:15;;;;;;;3.10;1.67;;;;;;;;;;5028526;28;20266;-66
2021/12/29 08:31:42;;;;;;;5.23;1.20;;;;;;;;;;5033763;28;20304;-66
2021/12/29 08:34:09;;;;;;;3.37;1.07;;;;;;;;;;5034191;28;20333;-66
2021/12/29 08:36:36;;;;;;;3.83;1.40;;;;;;;;;;5033015;28;20287;-68
2021/12/29 08:39:03;;;;;;;2.67;1.10;;;;;;;;;;5033506;28;20278;-67
2021/12/29 08:41:30;;;;;;;4.30;1.10;;;;;;;;;;5029567;28;20259;-66
2021/12/29 08:43:57;;;;;;;1.40;0.90;;;;;;;;;;5023354;28;20278;-66
2021/12/29 08:46:24;;;;;;;3.03;1.10;;;;;;;;;;5009612;28;20264;-66
2021/12/29 08:48:50;;;;;;;1.60;1.10;;;;;;;;;;5028699;28;20381;-66
2021/12/29 08:51:19;;;;;;;1.60;1.00;;;;;;;;;;5031285;28;20297;-66
2021/12/29 08:53:46;;;;;;;4.77;2.00;;;;;;;;;;5033127;28;20409;-66
2021/12/29 08:56:16;;;;;;;6.00;2.23;;;;;;;;;;5032617;28;20309;-66
2021/12/29 08:58:44;;;;;;;5.43;2.80;;;;;;;;;;5033269;28;20297;-66
2021/12/29 09:01:11;;;;;;;3.13;1.80;;;;;;;;;;5033375;28;20590;-66
2021/12/29 09:03:38;;;;;;;11.17;4.07;;;;;;;;;;5030553;28;20259;-66
2021/12/29 09:06:05;;;;;;;7.23;3.40;;;;;;;;;;5027920;28;20267;-67
2021/12/29 09:08:32;;;;;;;5.13;3.40;;;;;;;;;;5027749;28;20275;-66
2021/12/29 09:10:59;;;;;;;5.47;2.87;;;;;;;;;;5027787;28;20275;-66
2021/12/29 09:13:25;;;;;;;4.37;2.40;;;;;;;;;;5029758;28;20297;-66
2021/12/29 09:15:56;;;;;;;13.50;2.87;;;;;;;;;;5032448;28;20921;-67
2021/12/29 09:18:26;;;;;;;3.10;1.93;;;;;;;;;;5032318;28;20689;-66
2021/12/29 09:20:53;;;;;;;4.43;1.77;;;;;;;;;;5032510;28;20266;-66
2021/12/29 09:23:20;;;;;;;3.73;1.70;;;;;;;;;;5032811;28;20286;-66
2021/12/29 09:25:48;;;;;;;3.17;1.87;;;;;;;;;;5031181;28;20583;-66
2021/12/29 09:28:18;;;;;;;3.70;1.90;;;;;;;;;;5027974;28;20665;-66
2021/12/29 09:30:46;;;;;;;3.33;1.77;;;;;;;;;;5027327;28;20285;-66
2021/12/29 09:33:15;;;;;;;2.80;1.33;;;;;;;;;;5028104;28;20304;-66
2021/12/29 09:35:42;;;;;;;3.03;1.33;;;;;;;;;;5028482;28;20768;-66
2021/12/29 09:38:09;;;;;;;4.23;1.93;;;;;;;;;;5033078;28;20594;-66
2021/12/29 09:40:38;;;;;;;3.77;1.37;;;;;;;;;;5031848;28;20298;-66
2021/12/29 09:43:08;;;;;;;1.73;0.90;;;;;;;;;;5032644;28;20782;-66
2021/12/29 09:45:39;;;;;;;2.87;1.30;;;;;;;;;;5032063;28;21050;-66
2021/12/29 09:48:06;;;;;;;2.30;0.90;;;;;;;;;;5032031;28;20327;-66
2021/12/29 09:50:33;;;;;;;4.47;1.13;;;;;;;;;;5026516;28;20278;-66
2021/12/29 09:53:01;;;;;;;1.53;0.97;;;;;;;;;;5027275;28;20521;-66
2021/12/29 09:55:28;;;;;;;1.60;0.90;;;;;;;;;;5019765;28;20291;-66
2021/12/29 09:57:57;;;;;;;1.27;0.80;;;;;;;;;;5007883;28;20770;-66
2021/12/29 10:00:34;;;;;;;4.77;1.53;;;;;;;;;;5027182;28;20259;-66
2021/12/29 10:03:03;;;;;;;1.97;1.13;;;;;;;;;;5032173;28;20269;-66
2021/12/29 10:05:31;;;;;;;2.00;1.10;;;;;;;;;;5032591;28;20247;-67
2021/12/29 10:08:03;;;;;;;1.67;0.77;;;;;;;;;;5032179;28;20338;-66
2021/12/29 10:10:30;;;;;;;3.73;0.80;;;;;;;;;;5031715;28;20760;-66
2021/12/29 10:12:58;;;;;;;1.27;0.80;;;;;;;;;;5026455;28;20262;-66
2021/12/29 10:15:36;;;;;;;1.13;0.67;;;;;;;;;;5026751;28;20259;-67
2021/12/29 10:18:04;;;;;;;1.63;0.90;;;;;;;;;;5026944;28;20699;-66
2021/12/29 10:20:31;;;;;;;1.67;0.70;;;;;;;;;;5027072;28;20269;-66
2021/12/29 10:23:02;;;;;;;1.47;0.77;;;;;;;;;;5031927;28;20262;-66
2021/12/29 10:25:32;;;;;;;3.90;0.70;;;;;;;;;;5032226;28;20254;-66
2021/12/29 10:28:00;;;;;;;0.90;0.57;;;;;;;;;;5032096;28;20266;-66
2021/12/29 10:30:32;;;;;;;0.93;0.63;;;;;;;;;;5031608;28;20258;-66
2021/12/29 10:33:10;;;;;;;1.40;0.80;;;;;;;;;;5031908;28;20304;-66
2021/12/29 10:35:37;;;;;;;2.23;0.97;;;;;;;;;;5026446;28;20344;-66
2021/12/29 10:38:16;;;;;;;2.20;1.10;;;;;;;;;;5026341;28;21018;-66
2021/12/29 10:40:43;;;;;;;3.00;1.10;;;;;;;;;;5025697;28;20320;-66
2021/12/29 10:43:10;;;;;;;4.70;1.43;;;;;;;;;;5026822;28;20259;-67
2021/12/29 10:45:39;;;;;;;2.93;0.90;;;;;;;;;;5031321;28;20263;-66
2021/12/29 10:48:19;;;;;;;1.63;0.97;;;;;;;;;;5031329;28;20417;-66
2021/12/29 10:51:03;;;;;;;3.00;0.83;;;;;;;;;;5031880;28;20266;-66
2021/12/29 10:53:31;;;;;;;5.25;0.95;;;;;;;;;;5031988;28;20251;-66
2021/12/29 10:55:59;;;;;;;4.43;1.00;;;;;;;;;;5030068;28;20117;-66
2021/12/29 10:58:27;;;;;;;1.97;0.80;;;;;;;;;;5026576;28;20589;-66
2021/12/29 11:00:59;;;;;;;2.03;1.07;;;;;;;;;;5026741;28;21027;-67
2021/12/29 11:03:27;;;;;;;2.20;1.30;;;;;;;;;;5026812;28;20338;-66
2021/12/29 11:05:58;;;;;;;2.30;1.10;;;;;;;;;;5026469;28;20651;-66
2021/12/29 11:08:30;;;;;;;2.70;1.30;;;;;;;;;;5031913;28;20644;-66
2021/12/29 11:11:02;;;;;;;2.20;1.10;;;;;;;;;;5030671;28;20760;-66
2021/12/29 11:13:30;;;;;;;1.47;0.80;;;;;;;;;;5031223;28;20270;-66
2021/12/29 11:15:57;;;;;;;2.20;1.10;;;;;;;;;;5012315;28;20379;-66
2021/12/29 11:18:24;;;;;;;1.10;0.80;;;;;;;;;;5031598;28;20313;-66
2021/12/29 11:20:58;;;;;;;1.60;0.77;;;;;;;;;;5024804;28;20744;-66
2021/12/29 11:23:25;;;;;;;2.23;0.97;;;;;;;;;;5026167;28;20278;-66
2021/12/29 11:25:52;;;;;;;2.50;1.10;;;;;;;;;;5026323;28;20741;-67
2021/12/29 11:28:21;;;;;;;1.13;0.60;;;;;;;;;;5026343;28;20255;-66
2021/12/29 11:30:48;;;;;;;4.70;1.20;;;;;;;;;;5030885;28;20763;-66
2021/12/29 11:33:15;;;;;;;1.30;0.80;;;;;;;;;;5031262;28;20283;-66
2021/12/29 11:35:47;;;;;;;3.77;0.97;;;;;;;;;;5031267;28;20360;-66
2021/12/29 11:38:14;;;;;;;4.00;1.30;;;;;;;;;;5031322;28;20275;-66
2021/12/29 11:40:45;;;;;;;2.30;1.03;;;;;;;;;;5030592;28;20269;-66
2021/12/29 11:43:13;;;;;;;2.07;0.90;;;;;;;;;;5025771;28;20741;-66
2021/12/29 11:45:41;;;;;;;3.57;1.13;;;;;;;;;;5013977;28;20805;-66
2021/12/29 11:48:10;;;;;;;1.97;0.87;;;;;;;;;;5005682;28;20342;-66
2021/12/29 11:50:39;;;;;;;2.57;1.13;;;;;;;;;;5025387;28;20263;-66
2021/12/29 11:53:09;;;;;;;2.00;0.90;;;;;;;;;;5032146;28;20258;-66
2021/12/29 11:55:56;;;;;;;2.80;1.30;;;;;;;;;;5034744;28;20274;-67
2021/12/29 11:58:41;;;;;;;3.53;1.60;;;;;;;;;;5033915;28;20279;-66
2021/12/29 12:01:08;;;;;;;3.70;2.28;;;;;;;;;;5034506;28;20277;-66
2021/12/29 12:03:43;;;;;;;2.83;1.43;;;;;;;;;;5034390;28;20021;-66
2021/12/29 12:06:41;;;;;;;3.38;1.20;;;;;;;;;;5029480;28;20330;-66
2021/12/29 12:09:20;;;;;;;2.87;1.20;;;;;;;;;;5006673;28;20038;-66
2021/12/29 12:12:02;;;;;;;3.20;1.30;;;;;;;;;;5028807;28;20269;-66
2021/12/29 12:14:31;;;;;;;4.47;1.23;;;;;;;;;;5030882;28;20617;-66
2021/12/29 12:16:58;;;;;;;2.47;1.10;;;;;;;;;;5033711;28;20294;-65
2021/12/29 12:19:27;;;;;;;2.70;1.63;;;;;;;;;;5034525;28;20756;-65
2021/12/29 12:22:05;;;;;;;3.30;1.50;;;;;;;;;;5033866;28;20293;-65
2021/12/29 12:24:33;;;;;;;2.80;1.13;;;;;;;;;;5034024;28;20262;-66
2021/12/29 12:27:01;;;;;;;3.43;1.40;;;;;;;;;;5032392;28;20266;-66
2021/12/29 12:29:30;;;;;;;2.63;1.53;;;;;;;;;;5029366;28;20777;-66
2021/12/29 12:32:08;;;;;;;4.97;1.37;;;;;;;;;;5028556;28;20262;-66
2021/12/29 12:34:47;;;;;;;2.57;1.13;;;;;;;;;;5012760;28;20266;-66
2021/12/29 12:37:23;;;;;;;2.60;1.33;;;;;;;;;;5010916;28;20326;-66
2021/12/29 12:39:57;;;;;;;3.57;1.50;;;;;;;;;;5032516;28;20307;-66
2021/12/29 12:42:25;;;;;;;2.90;1.43;;;;;;;;;;5033234;28;20254;-66
2021/12/29 12:44:52;;;;;;;5.77;1.73;;;;;;;;;;5033695;28;20294;-65
2021/12/29 12:47:19;;;;;;;5.30;1.13;;;;;;;;;;5033155;28;20720;-65
2021/12/29 12:49:50;;;;;;;7.07;1.83;;;;;;;;;;5031317;28;20274;-66
2021/12/29 12:52:19;;;;;;;2.63;1.53;;;;;;;;;;5028570;28;20273;-65
2021/12/29 12:54:48;;;;;;;3.40;1.37;;;;;;;;;;5028034;28;20271;-65
2021/12/29 12:57:25;;;;;;;2.27;1.33;;;;;;;;;;5017167;28;20354;-65
2021/12/29 12:59:54;;;;;;;3.10;1.27;;;;;;;;;;5030401;28;20752;-65
2021/12/29 13:02:24;;;;;;;2.30;1.10;;;;;;;;;;5032982;28;20266;-65
2021/12/29 13:05:11;;;;;;;3.03;1.53;;;;;;;;;;5032679;28;20887;-65
2021/12/29 13:07:39;;;;;;;4.40;1.97;;;;;;;;;;5033365;28;20266;-66
2021/12/29 13:10:07;;;;;;;2.80;1.30;;;;;;;;;;5033081;28;20262;-66
2021/12/29 13:12:36;;;;;;;5.17;1.63;;;;;;;;;;5030230;28;20305;-66
2021/12/29 13:15:05;;;;;;;7.77;1.73;;;;;;;;;;5027978;28;20270;-65
2021/12/29 13:17:32;;;;;;;2.93;1.43;;;;;;;;;;5027924;28;20295;-66
2021/12/29 13:20:02;;;;;;;5.20;1.53;;;;;;;;;;5027989;28;20318;-66
2021/12/29 13:22:33;;;;;;;3.00;1.60;;;;;;;;;;5029556;28;20779;-66
2021/12/29 13:25:11;;;;;;;7.57;1.90;;;;;;;;;;5033215;28;20293;-65
2021/12/29 13:27:39;;;;;;;6.77;2.93;;;;;;;;;;5033165;28;20353;-65
2021/12/29 13:30:09;;;;;;;2.37;1.17;;;;;;;;;;5032652;28;20274;-66
2021/12/29 13:32:47;;;;;;;3.57;1.50;;;;;;;;;;5032989;28;20317;-66
2021/12/29 13:35:14;;;;;;;3.00;1.33;;;;;;;;;;5030482;28;20609;-66
2021/12/29 13:37:41;;;;;;;4.23;1.90;;;;;;;;;;5027282;28;20349;-66
2021/12/29 13:40:13;;;;;;;5.37;2.20;;;;;;;;;;5026085;28;20262;-66
2021/12/29 13:42:41;;;;;;;5.43;1.60;;;;;;;;;;5017491;28;20263;-65
2021/12/29 13:45:20;;;;;;;4.37;1.90;;;;;;;;;;5028716;28;20694;-65
2021/12/29 13:47:47;;;;;;;7.67;2.10;;;;;;;;;;5031455;28;20831;-66
2021/12/29 13:50:14;;;;;;;11.43;3.63;;;;;;;;;;5032189;28;20255;-66
2021/12/29 13:52:41;;;;;;;15.20;4.07;;;;;;;;;;5031682;28;20601;-66
2021/12/29 13:55:08;;;;;;;9.13;3.20;;;;;;;;;;5031863;28;20282;-67
2021/12/29 13:57:35;;;;;;;4.00;1.70;;;;;;;;;;5028768;28;20374;-66
2021/12/29 14:00:02;;;;;;;5.57;1.50;;;;;;;;;;5026709;28;20266;-67
2021/12/29 14:02:29;;;;;;;2.60;1.00;;;;;;;;;;5026678;28;20336;-66
2021/12/29 14:04:56;;;;;;;8.40;1.80;;;;;;;;;;5026538;28;20278;-66
2021/12/29 14:07:24;;;;;;;8.57;2.60;;;;;;;;;;5028444;28;20759;-66
2021/12/29 14:09:58;;;;;;;8.83;1.60;;;;;;;;;;5031435;28;20278;-66
2021/12/29 14:12:27;;;;;;;20.40;3.80;;;;;;;;;;5030935;28;20267;-66
2021/12/29 14:15:02;;;;;;;4.47;2.60;;;;;;;;;;5031998;28;20057;-66
2021/12/29 14:17:37;;;;;;;6.63;1.60;;;;;;;;;;5027425;28;20295;-66
2021/12/29 14:20:11;;;;;;;3.90;1.63;;;;;;;;;;5028156;28;20761;-67
2021/12/29 14:22:38;;;;;;;3.53;1.70;;;;;;;;;;5026295;28;20480;-68
2021/12/29 14:25:11;;;;;;;3.70;1.60;;;;;;;;;;5026119;28;20037;-67
2021/12/29 14:27:39;;;;;;;10.37;1.90;;;;;;;;;;5025942;28;20793;-67
2021/12/29 14:30:16;;;;;;;4.63;1.50;;;;;;;;;;5028922;28;20763;-68
2021/12/29 14:32:53;;;;;;;3.30;1.70;;;;;;;;;;5031083;28;20277;-67
2021/12/29 14:35:20;;;;;;;4.63;1.40;;;;;;;;;;5031284;28;20320;-68
2021/12/29 14:37:47;;;;;;;3.90;1.50;;;;;;;;;;5031246;28;20073;-67
2021/12/29 14:40:22;;;;;;;6.33;1.60;;;;;;;;;;5030770;28;20733;-67
2021/12/29 14:42:49;;;;;;;5.93;1.65;;;;;;;;;;5028166;28;20089;-68
2021/12/29 14:45:17;;;;;;;3.10;1.47;;;;;;;;;;5026136;28;20022;-67
2021/12/29 14:47:48;;;;;;;3.30;1.40;;;;;;;;;;5025658;28;20022;-67
2021/12/29 14:50:21;;;;;;;4.00;1.60;;;;;;;;;;5025447;28;20036;-68
2021/12/29 14:52:49;;;;;;;4.10;1.67;;;;;;;;;;5026369;28;20203;-67
2021/12/29 14:55:20;;;;;;;4.07;1.87;;;;;;;;;;5031255;28;20048;-67
2021/12/29 14:57:50;;;;;;;5.40;2.40;;;;;;;;;;5031585;28;20048;-67
2021/12/29 15:00:28;;;;;;;4.03;1.97;;;;;;;;;;5031741;28;20079;-67
2021/12/29 15:03:03;;;;;;;4.20;2.03;;;;;;;;;;5027002;28;20060;-67
2021/12/29 15:05:38;;;;;;;6.50;2.20;;;;;;;;;;5027627;28;20037;-68
2021/12/29 15:08:06;;;;;;;6.25;2.40;;;;;;;;;;5026559;28;20037;-67
2021/12/29 15:10:39;;;;;;;7.83;2.17;;;;;;;;;;5026139;28;20505;-69
2021/12/29 15:13:11;;;;;;;4.73;1.90;;;;;;;;;;5026384;28;20476;-68
2021/12/29 15:15:41;;;;;;;4.57;1.77;;;;;;;;;;5030235;28;20163;-68